createdAt,value
2016-08-20T10:41:13.872Z,20
2016-08-20T10:42:02.086Z,20
2016-08-20T10:43:01.390Z,20
2016-08-20T10:44:01.419Z,25
2016-08-20T10:45:01.461Z,25
2016-08-20T10:46:02.211Z,25
2016-08-20T10:47:01.701Z,25
2016-08-20T10:48:01.521Z,25
2016-08-20T10:49:01.651Z,25
2016-08-20T10:50:01.691Z,25
2016-08-20T10:51:02.392Z,25
2016-08-20T10:52:01.735Z,25
2016-08-20T10:53:02.464Z,25
2016-08-20T10:54:01.888Z,25
2016-08-20T10:55:01.898Z,25
2016-08-20T10:56:02.652Z,30
2016-08-20T10:57:02.159Z,30
2016-08-20T10:58:01.957Z,30
2016-08-20T10:59:01.971Z,30
2016-08-20T11:00:02.685Z,30
2016-08-20T11:01:01.979Z,30
2016-08-20T11:02:01.995Z,30
2016-08-20T11:03:02.035Z,35
2016-08-20T11:04:02.043Z,35
2016-08-20T11:05:02.832Z,35
2016-08-20T11:06:02.088Z,35
2016-08-20T11:07:02.795Z,35
2016-08-20T11:08:02.294Z,35
2016-08-20T11:09:02.101Z,40
2016-08-20T11:10:02.253Z,40
2016-08-20T11:11:02.165Z,35
2016-08-20T11:12:02.190Z,35
2016-08-20T11:13:02.226Z,40
2016-08-20T11:14:02.256Z,30
2016-08-20T11:15:02.283Z,35
2016-08-20T11:16:02.326Z,30
2016-08-20T11:17:02.342Z,35
2016-08-20T11:18:02.375Z,35
2016-08-20T11:19:02.408Z,35
2016-08-20T11:20:02.442Z,35
2016-08-20T11:21:02.491Z,35
2016-08-20T11:22:03.203Z,35
2016-08-20T11:23:02.627Z,35
2016-08-20T11:24:02.648Z,35
2016-08-20T11:25:02.655Z,35
2016-08-20T11:26:02.631Z,35
2016-08-20T11:27:02.777Z,35
2016-08-20T11:28:03.403Z,35
2016-08-20T11:29:02.710Z,35
2016-08-20T11:30:02.753Z,35
2016-08-20T11:31:02.774Z,35
2016-08-20T11:32:02.803Z,35
2016-08-20T11:33:02.838Z,35
2016-08-20T11:34:02.873Z,40
2016-08-20T11:35:02.895Z,45
2016-08-20T11:36:04.352Z,50
2016-08-20T11:37:02.964Z,45
2016-08-20T11:38:02.993Z,50
2016-08-20T11:39:03.031Z,65
2016-08-20T11:40:03.057Z,60
2016-08-20T11:41:03.092Z,55
2016-08-20T11:42:03.276Z,55
2016-08-20T11:43:03.276Z,60
2016-08-20T11:44:03.283Z,60
2016-08-20T11:45:03.316Z,70
2016-08-20T11:46:04.662Z,70
2016-08-20T11:47:03.979Z,70
2016-08-20T11:48:04.016Z,65
2016-08-20T11:49:03.399Z,65
2016-08-20T11:50:03.541Z,55
2016-08-20T11:51:03.419Z,50
2016-08-20T11:52:03.534Z,50
2016-08-20T11:53:03.543Z,45
2016-08-20T11:54:03.575Z,45
2016-08-20T11:55:03.583Z,45
2016-08-20T11:56:04.276Z,45
2016-08-20T11:57:03.595Z,45
2016-08-20T11:58:04.340Z,45
2016-08-20T11:59:03.713Z,45
2016-08-20T12:00:03.695Z,40
2016-08-20T12:01:03.723Z,40
2016-08-20T12:02:03.764Z,40
2016-08-20T12:03:03.790Z,35
2016-08-20T12:04:03.828Z,30
2016-08-20T12:05:03.861Z,30
2016-08-20T12:06:03.891Z,30
2016-08-20T12:07:03.928Z,35
2016-08-20T12:08:03.971Z,50
2016-08-20T12:09:04.694Z,60
2016-08-20T12:10:04.077Z,60
2016-08-20T12:11:04.057Z,55
2016-08-20T12:12:04.093Z,55
2016-08-20T12:13:04.119Z,60
2016-08-20T12:14:04.150Z,60
2016-08-20T12:15:04.192Z,55
2016-08-20T12:16:04.933Z,55
2016-08-20T12:17:04.265Z,55
2016-08-20T12:18:04.291Z,55
2016-08-20T12:19:04.318Z,60
2016-08-20T12:20:04.356Z,60
2016-08-20T12:21:04.388Z,60
2016-08-20T12:22:04.420Z,60
2016-08-20T12:23:04.459Z,60
2016-08-20T12:24:04.493Z,60
2016-08-20T12:25:04.524Z,60
2016-08-20T12:26:04.554Z,60
2016-08-20T12:27:04.588Z,60
2016-08-20T12:28:06.058Z,55
2016-08-20T12:29:04.655Z,55
2016-08-20T12:30:04.707Z,50
2016-08-20T12:31:04.725Z,50
2016-08-20T12:32:04.762Z,60
2016-08-20T12:33:04.789Z,65
2016-08-20T12:34:04.818Z,65
2016-08-20T12:35:04.864Z,70
2016-08-20T12:36:04.899Z,65
2016-08-20T12:37:05.662Z,65
2016-08-20T12:38:05.670Z,65
2016-08-20T12:39:05.712Z,60
2016-08-20T12:40:05.025Z,60
2016-08-20T12:41:05.056Z,60
2016-08-20T12:42:05.795Z,60
2016-08-20T12:43:05.252Z,55
2016-08-20T12:44:05.410Z,55
2016-08-20T12:45:05.286Z,45
2016-08-20T12:46:05.460Z,45
2016-08-20T12:47:05.462Z,50
2016-08-20T12:48:05.472Z,50
2016-08-20T12:49:06.035Z,45
2016-08-20T12:50:05.490Z,55
2016-08-20T12:51:05.498Z,55
2016-08-20T12:52:05.633Z,55
2016-08-20T12:53:05.587Z,55
2016-08-20T12:54:05.615Z,55
2016-08-20T12:55:05.593Z,55
2016-08-20T12:56:05.656Z,55
2016-08-20T12:57:05.672Z,60
2016-08-20T12:58:05.670Z,55
2016-08-20T12:59:05.982Z,60
2016-08-20T13:00:06.420Z,60
2016-08-20T13:01:05.796Z,55
2016-08-20T13:02:05.772Z,55
2016-08-20T13:03:05.806Z,55
2016-08-20T13:04:06.598Z,55
2016-08-20T13:05:06.569Z,50
2016-08-20T13:06:05.897Z,50
2016-08-20T13:07:05.933Z,50
2016-08-20T13:08:05.976Z,50
2016-08-20T13:09:06.015Z,50
2016-08-20T13:10:06.042Z,50
2016-08-20T13:11:06.780Z,50
2016-08-20T13:12:06.107Z,50
2016-08-20T13:13:06.250Z,50
2016-08-20T13:14:06.288Z,40
2016-08-20T13:15:06.915Z,40
2016-08-20T13:16:06.409Z,45
2016-08-20T13:17:06.418Z,40
2016-08-20T13:18:06.314Z,35
2016-08-20T13:19:07.053Z,35
2016-08-20T13:20:06.575Z,45
2016-08-20T13:21:06.408Z,40
2016-08-20T13:22:07.159Z,30
2016-08-20T13:23:06.488Z,20
2016-08-20T13:24:07.281Z,30
2016-08-20T13:25:06.560Z,35
2016-08-20T13:26:06.683Z,35
2016-08-20T13:27:06.733Z,30
2016-08-20T13:28:06.766Z,30
2016-08-20T13:29:07.401Z,40
2016-08-20T13:30:07.444Z,50
2016-08-20T13:31:06.765Z,50
2016-08-20T13:32:07.497Z,50
2016-08-20T13:33:06.821Z,50
2016-08-20T13:34:07.052Z,50
2016-08-20T13:35:07.026Z,50
2016-08-20T13:36:07.034Z,50
2016-08-20T13:37:07.041Z,50
2016-08-20T13:38:07.050Z,50
2016-08-20T13:39:07.091Z,50
2016-08-20T13:40:07.117Z,50
2016-08-20T13:41:07.148Z,50
2016-08-20T13:42:07.129Z,50
2016-08-20T13:43:07.163Z,50
2016-08-20T13:44:08.032Z,50
2016-08-20T13:45:07.238Z,45
2016-08-20T13:46:07.300Z,45
2016-08-20T13:47:07.317Z,45
2016-08-20T13:48:08.042Z,45
2016-08-20T13:49:08.079Z,45
2016-08-20T13:50:07.420Z,45
2016-08-20T13:51:08.198Z,45
2016-08-20T13:52:07.783Z,45
2016-08-20T13:53:07.530Z,45
2016-08-20T13:54:07.639Z,45
2016-08-20T13:55:07.686Z,40
2016-08-20T13:56:07.685Z,40
2016-08-20T13:57:07.697Z,40
2016-08-20T13:58:08.453Z,35
2016-08-20T13:59:08.447Z,35
2016-08-20T14:00:07.754Z,35
2016-08-20T14:01:07.782Z,35
2016-08-20T14:02:07.930Z,35
2016-08-20T14:03:07.967Z,35
2016-08-20T14:04:08.000Z,35
2016-08-20T14:05:08.660Z,35
2016-08-20T14:06:07.954Z,30
2016-08-20T14:07:07.988Z,30
2016-08-20T14:08:08.024Z,30
2016-08-20T14:09:08.057Z,30
2016-08-20T14:10:08.143Z,30
2016-08-20T14:11:08.131Z,30
2016-08-20T14:12:08.268Z,30
2016-08-20T14:13:08.902Z,30
2016-08-20T14:14:09.640Z,25
2016-08-20T14:15:08.267Z,25
2016-08-20T14:16:09.109Z,20
2016-08-20T14:17:08.441Z,25
2016-08-20T14:18:08.386Z,30
2016-08-20T14:19:08.404Z,30
2016-08-20T14:20:08.437Z,35
2016-08-20T14:21:08.469Z,35
2016-08-20T14:22:08.622Z,35
2016-08-20T14:23:08.537Z,35
2016-08-20T14:24:08.789Z,30
2016-08-20T14:25:08.725Z,30
2016-08-20T14:26:09.561Z,25
2016-08-20T14:27:09.519Z,20
2016-08-20T14:28:08.865Z,20
2016-08-20T14:29:08.962Z,15
2016-08-20T14:30:08.877Z,15
2016-08-20T14:31:09.585Z,15
2016-08-20T14:32:09.787Z,15
2016-08-20T14:33:08.969Z,15
2016-08-20T14:34:08.991Z,15
2016-08-20T14:35:09.073Z,15
2016-08-20T14:36:08.976Z,15
2016-08-20T14:37:09.131Z,10
2016-08-20T14:38:09.059Z,10
2016-08-20T14:39:09.193Z,15
2016-08-20T14:40:09.135Z,15
2016-08-20T14:41:09.243Z,10
2016-08-20T14:42:09.899Z,10
2016-08-20T14:43:09.929Z,10
2016-08-20T14:44:09.263Z,10
2016-08-20T14:45:09.289Z,10
2016-08-20T14:46:09.387Z,10
2016-08-20T14:47:09.356Z,5
2016-08-20T14:48:09.387Z,5
2016-08-20T14:49:09.426Z,5
2016-08-20T14:50:10.212Z,5
2016-08-20T14:51:10.352Z,5
2016-08-20T14:52:09.525Z,5
2016-08-20T14:53:09.648Z,5
2016-08-20T14:54:09.597Z,5
2016-08-20T14:55:09.629Z,0
2016-08-20T14:56:09.753Z,0
2016-08-20T14:57:09.750Z,0
2016-08-20T14:58:09.799Z,0
2016-08-20T14:59:10.557Z,0
2016-08-20T15:00:09.810Z,0
2016-08-20T15:01:10.532Z,0
2016-08-20T15:02:10.166Z,0
2016-08-20T15:03:09.884Z,0
2016-08-20T15:04:10.014Z,5
2016-08-20T15:05:10.046Z,5
2016-08-20T15:06:10.053Z,10
2016-08-20T15:07:10.063Z,5
2016-08-20T15:08:10.072Z,5
2016-08-20T15:09:10.207Z,5
2016-08-20T15:10:10.217Z,5
2016-08-20T15:11:10.248Z,5
2016-08-20T15:12:10.256Z,5
2016-08-20T15:13:10.266Z,0
2016-08-20T15:14:10.267Z,0
2016-08-20T15:15:10.315Z,0
2016-08-20T15:16:11.039Z,0
2016-08-20T15:17:10.358Z,0
2016-08-20T15:18:10.397Z,0
2016-08-20T15:19:10.422Z,0
2016-08-20T15:20:10.469Z,0
2016-08-20T15:21:10.488Z,0
2016-08-20T15:22:10.524Z,5
2016-08-20T15:23:10.568Z,5
2016-08-20T15:24:10.592Z,0
2016-08-20T15:25:10.641Z,0
2016-08-20T15:26:10.661Z,0
2016-08-20T15:27:10.699Z,0
2016-08-20T15:28:10.911Z,0
2016-08-20T15:29:12.061Z,0
2016-08-20T15:30:10.792Z,0
2016-08-20T15:31:10.821Z,5
2016-08-20T15:32:10.847Z,5
2016-08-20T15:33:10.886Z,5
2016-08-20T15:34:10.925Z,5
2016-08-20T15:35:10.959Z,10
2016-08-20T15:36:10.983Z,10
2016-08-20T15:37:11.020Z,10
2016-08-20T15:38:11.074Z,10
2016-08-20T15:39:11.077Z,10
2016-08-20T15:40:11.109Z,5
2016-08-20T15:41:11.858Z,5
2016-08-20T15:42:11.892Z,5
2016-08-20T15:43:11.915Z,5
2016-08-20T15:44:11.257Z,5
2016-08-20T15:45:11.280Z,5
2016-08-20T15:46:11.312Z,5
2016-08-20T15:47:11.337Z,5
2016-08-20T15:48:11.372Z,5
2016-08-20T15:49:11.401Z,0
2016-08-20T15:50:11.441Z,0
2016-08-20T15:51:11.476Z,0
2016-08-20T15:52:12.521Z,0
2016-08-20T15:53:11.540Z,0
2016-08-20T15:54:11.569Z,5
2016-08-20T15:55:11.614Z,5
2016-08-20T15:56:11.630Z,5
2016-08-20T15:57:12.385Z,5
2016-08-20T15:58:11.686Z,5
2016-08-20T15:59:11.730Z,5
2016-08-20T16:00:11.756Z,5
2016-08-20T16:01:12.745Z,5
2016-08-20T16:02:11.823Z,0
2016-08-20T16:03:12.698Z,0
2016-08-20T16:04:11.893Z,0
2016-08-20T16:05:12.628Z,0
2016-08-20T16:06:12.858Z,0
2016-08-20T16:07:11.992Z,0
2016-08-20T16:08:12.041Z,0
2016-08-20T16:09:12.051Z,0
2016-08-20T16:10:12.078Z,0
2016-08-20T16:11:12.116Z,0
2016-08-20T16:12:12.141Z,0
2016-08-20T16:13:12.296Z,0
2016-08-20T16:14:12.303Z,0
2016-08-20T16:15:12.334Z,0
2016-08-20T16:16:12.369Z,0
2016-08-20T16:17:12.542Z,0
2016-08-20T16:18:12.458Z,0
2016-08-20T16:19:12.467Z,0
2016-08-20T16:20:12.619Z,0
2016-08-20T16:21:12.610Z,0
2016-08-20T16:22:12.622Z,0
2016-08-20T16:23:12.637Z,0
2016-08-20T16:24:12.639Z,0
2016-08-20T16:25:12.633Z,0
2016-08-20T16:26:12.690Z,0
2016-08-20T16:27:13.397Z,0
2016-08-20T16:28:12.728Z,0
2016-08-20T16:29:13.442Z,0
2016-08-20T16:30:12.737Z,0
2016-08-20T16:31:12.740Z,0
2016-08-20T16:32:12.826Z,0
2016-08-20T16:33:12.817Z,0
2016-08-20T16:34:12.836Z,0
2016-08-20T16:35:12.870Z,0
2016-08-20T16:36:12.906Z,0
2016-08-20T16:37:12.984Z,0
2016-08-20T16:38:12.961Z,0
2016-08-20T16:39:12.992Z,0
2016-08-20T16:40:13.082Z,0
2016-08-20T16:41:13.085Z,0
2016-08-20T16:42:13.087Z,0
2016-08-20T16:43:13.116Z,0
2016-08-20T16:44:13.156Z,0
2016-08-20T16:45:13.186Z,0
2016-08-20T16:46:13.216Z,0
2016-08-20T16:47:13.245Z,0
2016-08-20T16:48:13.270Z,0
2016-08-20T16:49:13.305Z,0
2016-08-20T16:50:13.336Z,0
2016-08-20T16:51:13.393Z,0
2016-08-20T16:52:13.392Z,0
2016-08-20T16:53:13.417Z,0
2016-08-20T16:54:13.451Z,0
2016-08-20T16:55:13.492Z,0
2016-08-20T16:56:14.232Z,0
2016-08-20T16:57:13.544Z,0
2016-08-20T16:58:13.581Z,0
2016-08-20T16:59:13.606Z,0
2016-08-20T17:00:13.638Z,0
2016-08-20T17:01:13.674Z,0
2016-08-20T17:02:14.413Z,0
2016-08-20T17:03:14.435Z,0
2016-08-20T17:04:13.764Z,0
2016-08-20T17:05:13.790Z,0
2016-08-20T17:06:14.565Z,0
2016-08-20T17:07:13.850Z,0
2016-08-20T17:08:14.599Z,0
2016-08-20T17:09:14.825Z,0
2016-08-20T17:10:13.953Z,0
2016-08-20T17:11:13.971Z,0
2016-08-20T17:12:14.007Z,0
2016-08-20T17:13:14.034Z,0
2016-08-20T17:14:14.074Z,0
2016-08-20T17:15:14.095Z,0
2016-08-20T17:16:14.147Z,0
2016-08-20T17:17:14.863Z,0
2016-08-20T17:18:14.192Z,0
2016-08-20T17:19:14.928Z,0
2016-08-20T17:20:14.368Z,0
2016-08-20T17:21:15.110Z,0
2016-08-20T17:22:14.526Z,0
2016-08-20T17:23:14.549Z,0
2016-08-20T17:24:14.533Z,0
2016-08-20T17:25:14.551Z,0
2016-08-20T17:26:14.550Z,0
2016-08-20T17:27:14.563Z,0
2016-08-20T17:28:14.582Z,0
2016-08-20T17:29:14.711Z,0
2016-08-20T17:30:14.719Z,0
2016-08-20T17:31:15.438Z,0
2016-08-20T17:32:14.743Z,0
2016-08-20T17:33:15.446Z,0
2016-08-20T17:34:14.752Z,0
2016-08-20T17:35:15.419Z,0
2016-08-20T17:36:14.727Z,0
2016-08-20T17:37:14.953Z,0
2016-08-20T17:38:14.783Z,0
2016-08-20T17:39:14.813Z,0
2016-08-20T17:40:14.848Z,0
2016-08-20T17:41:14.873Z,0
2016-08-20T17:42:15.611Z,0
2016-08-20T17:43:14.937Z,0
2016-08-20T17:44:15.012Z,0
2016-08-20T17:45:14.996Z,0
2016-08-20T17:46:15.844Z,0
2016-08-20T17:47:15.054Z,0
2016-08-20T17:48:15.080Z,0
2016-08-20T17:49:15.112Z,0
2016-08-20T17:50:15.893Z,0
2016-08-20T17:51:15.903Z,0
2016-08-20T17:52:15.204Z,0
2016-08-20T17:53:15.234Z,0
2016-08-20T17:54:16.080Z,0
2016-08-20T17:55:16.087Z,0
2016-08-20T17:56:15.327Z,0
2016-08-20T17:57:15.344Z,0
2016-08-20T17:58:15.380Z,0
2016-08-20T17:59:15.405Z,0
2016-08-20T18:00:15.435Z,0
2016-08-20T18:01:15.458Z,0
2016-08-20T18:02:15.502Z,0
2016-08-20T18:03:15.529Z,0
2016-08-20T18:04:15.555Z,0
2016-08-20T18:05:15.593Z,0
2016-08-20T18:06:15.611Z,0
2016-08-20T18:07:15.647Z,0
2016-08-20T18:08:15.664Z,0
2016-08-20T18:09:15.799Z,0
2016-08-20T18:10:15.830Z,0
2016-08-20T18:11:15.838Z,0
2016-08-20T18:12:15.837Z,0
2016-08-20T18:13:15.848Z,0
2016-08-20T18:14:15.857Z,0
2016-08-20T18:15:16.001Z,0
2016-08-20T18:16:16.033Z,0
2016-08-20T18:17:16.033Z,0
2016-08-20T18:18:16.041Z,0
2016-08-20T18:19:16.049Z,0
2016-08-20T18:20:16.754Z,0
2016-08-20T18:21:16.068Z,0
2016-08-20T18:22:16.138Z,0
2016-08-20T18:23:16.116Z,0
2016-08-20T18:24:16.151Z,0
2016-08-20T18:25:16.162Z,0
2016-08-20T18:26:16.196Z,0
2016-08-20T18:27:16.242Z,0
2016-08-20T18:28:16.254Z,0
2016-08-20T18:29:16.292Z,0
2016-08-20T18:30:16.315Z,0
2016-08-20T18:31:16.347Z,0
2016-08-20T18:32:16.367Z,0
2016-08-20T18:33:16.396Z,0
2016-08-20T18:34:16.438Z,0
2016-08-20T18:35:17.161Z,0
2016-08-20T18:36:16.489Z,0
2016-08-20T18:37:17.221Z,0
2016-08-20T18:38:16.541Z,0
2016-08-20T18:39:16.573Z,0
2016-08-20T18:40:16.600Z,0
2016-08-20T18:41:16.684Z,0
2016-08-20T18:42:17.424Z,0
2016-08-20T18:43:16.679Z,0
2016-08-20T18:44:17.433Z,0
2016-08-20T18:45:16.740Z,0
2016-08-20T18:46:16.773Z,0
2016-08-20T18:47:17.506Z,0
2016-08-20T18:48:16.832Z,0
2016-08-20T18:49:16.856Z,0
2016-08-20T18:50:16.888Z,0
2016-08-20T18:51:16.914Z,0
2016-08-20T18:52:16.948Z,0
2016-08-20T18:53:17.682Z,0
2016-08-20T18:54:17.717Z,0
2016-08-20T18:55:17.048Z,0
2016-08-20T18:56:17.063Z,0
2016-08-20T18:57:18.047Z,0
2016-08-20T18:58:17.113Z,0
2016-08-20T18:59:17.142Z,0
2016-08-20T19:00:17.182Z,0
2016-08-20T19:01:18.007Z,0
2016-08-20T19:02:17.236Z,0
2016-08-20T19:03:17.264Z,0
2016-08-20T19:04:17.284Z,0
2016-08-20T19:05:17.310Z,0
2016-08-20T19:06:17.349Z,0
2016-08-20T19:07:17.369Z,0
2016-08-20T19:08:17.411Z,0
2016-08-20T19:09:17.434Z,0
2016-08-20T19:10:18.252Z,0
2016-08-20T19:11:17.486Z,0
2016-08-20T19:12:17.510Z,0
2016-08-20T19:13:17.542Z,0
2016-08-20T19:14:17.575Z,0
2016-08-20T19:15:17.609Z,0
2016-08-20T19:16:17.628Z,0
2016-08-20T19:17:17.674Z,0
2016-08-20T19:18:17.814Z,0
2016-08-20T19:19:18.430Z,0
2016-08-20T19:20:17.826Z,0
2016-08-20T19:21:17.866Z,0
2016-08-20T19:22:18.038Z,0
2016-08-20T19:23:18.047Z,0
2016-08-20T19:24:18.062Z,0
2016-08-20T19:25:18.072Z,0
2016-08-20T19:26:18.071Z,0
2016-08-20T19:27:18.119Z,0
2016-08-20T19:28:18.127Z,0
2016-08-20T19:29:18.142Z,0
2016-08-20T19:30:18.140Z,0
2016-08-20T19:31:18.146Z,0
2016-08-20T19:32:18.192Z,0
2016-08-20T19:33:18.202Z,0
2016-08-20T19:34:18.243Z,0
2016-08-20T19:35:18.234Z,0
2016-08-20T19:36:18.239Z,0
2016-08-20T19:37:18.931Z,0
2016-08-20T19:38:18.256Z,0
2016-08-20T19:39:18.289Z,0
2016-08-20T19:40:18.306Z,0
2016-08-20T19:41:18.387Z,0
2016-08-20T19:42:18.374Z,0
2016-08-20T19:43:18.398Z,0
2016-08-20T19:44:18.425Z,0
2016-08-20T19:45:18.454Z,0
2016-08-20T19:46:18.476Z,0
2016-08-20T19:47:18.506Z,0
2016-08-20T19:48:18.539Z,0
2016-08-20T19:49:18.565Z,0
2016-08-20T19:50:19.305Z,0
2016-08-20T19:51:18.621Z,0
2016-08-20T19:52:18.650Z,0
2016-08-20T19:53:18.674Z,0
2016-08-20T19:54:19.415Z,0
2016-08-20T19:55:18.728Z,0
2016-08-20T19:56:18.767Z,0
2016-08-20T19:57:18.793Z,0
2016-08-20T19:58:18.814Z,0
2016-08-20T19:59:18.854Z,0
2016-08-20T20:00:18.870Z,0
2016-08-20T20:01:18.905Z,0
2016-08-20T20:02:18.944Z,0
2016-08-20T20:03:18.952Z,0
2016-08-20T20:04:18.987Z,0
2016-08-20T20:05:19.015Z,0
2016-08-20T20:06:20.454Z,0
2016-08-20T20:07:19.069Z,0
2016-08-20T20:08:19.104Z,0
2016-08-20T20:09:19.827Z,0
2016-08-20T20:10:19.154Z,0
2016-08-20T20:11:19.977Z,0
2016-08-20T20:12:19.206Z,0
2016-08-20T20:13:19.231Z,0
2016-08-20T20:14:19.265Z,0
2016-08-20T20:15:19.284Z,0
2016-08-20T20:16:19.324Z,0
2016-08-20T20:17:19.365Z,0
2016-08-20T20:18:19.416Z,0
2016-08-20T20:19:19.413Z,0
2016-08-20T20:20:19.429Z,0
2016-08-20T20:21:19.462Z,0
2016-08-20T20:22:19.483Z,0
2016-08-20T20:23:19.525Z,0
2016-08-20T20:24:20.299Z,0
2016-08-20T20:25:19.564Z,0
2016-08-20T20:26:19.596Z,0
2016-08-20T20:27:19.625Z,0
2016-08-20T20:28:20.359Z,0
2016-08-20T20:29:19.686Z,0
2016-08-20T20:30:19.721Z,0
2016-08-20T20:31:19.745Z,0
2016-08-20T20:32:19.878Z,0
2016-08-20T20:33:19.894Z,0
2016-08-20T20:34:20.052Z,0
2016-08-20T20:35:20.062Z,0
2016-08-20T20:36:20.072Z,0
2016-08-20T20:37:20.086Z,0
2016-08-20T20:38:20.095Z,0
2016-08-20T20:39:20.090Z,0
2016-08-20T20:40:20.100Z,0
2016-08-20T20:41:20.107Z,0
2016-08-20T20:42:20.247Z,0
2016-08-20T20:43:20.157Z,0
2016-08-20T20:44:20.165Z,0
2016-08-20T20:45:20.212Z,0
2016-08-20T20:46:20.247Z,0
2016-08-20T20:47:20.248Z,0
2016-08-20T20:48:20.262Z,0
2016-08-20T20:49:20.259Z,0
2016-08-20T20:50:20.274Z,0
2016-08-20T20:51:20.291Z,0
2016-08-20T20:52:20.328Z,0
2016-08-20T20:53:20.409Z,0
2016-08-20T20:54:20.385Z,0
2016-08-20T20:55:20.405Z,0
2016-08-20T20:56:20.429Z,0
2016-08-20T20:57:20.466Z,0
2016-08-20T20:58:21.200Z,0
2016-08-20T20:59:20.517Z,0
2016-08-20T21:00:20.540Z,0
2016-08-20T21:01:20.566Z,0
2016-08-20T21:02:20.597Z,0
2016-08-20T21:03:20.627Z,0
2016-08-20T21:04:21.361Z,0
2016-08-20T21:05:21.407Z,0
2016-08-20T21:06:20.707Z,0
2016-08-20T21:07:20.743Z,0
2016-08-20T21:08:20.805Z,0
2016-08-20T21:09:20.783Z,0
2016-08-20T21:10:20.814Z,0
2016-08-20T21:11:20.843Z,0
2016-08-20T21:12:20.868Z,0
2016-08-20T21:13:20.906Z,0
2016-08-20T21:14:20.928Z,0
2016-08-20T21:15:20.955Z,0
2016-08-20T21:16:21.000Z,0
2016-08-20T21:17:21.022Z,0
2016-08-20T21:18:21.032Z,0
2016-08-20T21:19:21.062Z,0
2016-08-20T21:20:21.109Z,0
2016-08-20T21:21:21.819Z,0
2016-08-20T21:22:21.145Z,0
2016-08-20T21:23:21.176Z,0
2016-08-20T21:24:21.203Z,0
2016-08-20T21:25:22.750Z,0
2016-08-20T21:26:21.249Z,0
2016-08-20T21:27:22.002Z,0
2016-08-20T21:28:21.302Z,0
2016-08-20T21:29:21.335Z,0
2016-08-20T21:30:21.357Z,0
2016-08-20T21:31:21.390Z,0
2016-08-20T21:32:21.418Z,0
2016-08-20T21:33:22.281Z,0
2016-08-20T21:34:21.470Z,0
2016-08-20T21:35:21.518Z,0
2016-08-20T21:36:21.520Z,0
2016-08-20T21:37:21.562Z,0
2016-08-20T21:38:21.576Z,0
2016-08-20T21:39:21.611Z,0
2016-08-20T21:40:21.630Z,0
2016-08-20T21:41:21.658Z,0
2016-08-20T21:42:22.410Z,0
2016-08-20T21:43:21.770Z,0
2016-08-20T21:44:21.749Z,0
2016-08-20T21:45:21.783Z,0
2016-08-20T21:46:21.799Z,0
2016-08-20T21:47:22.538Z,0
2016-08-20T21:48:21.943Z,0
2016-08-20T21:49:21.972Z,0
2016-08-20T21:50:22.202Z,0
2016-08-20T21:51:22.154Z,0
2016-08-20T21:52:22.166Z,0
2016-08-20T21:53:22.177Z,0
2016-08-20T21:54:22.232Z,0
2016-08-20T21:55:22.219Z,0
2016-08-20T21:56:22.239Z,0
2016-08-20T21:57:22.238Z,0
2016-08-20T21:58:22.963Z,0
2016-08-20T21:59:22.261Z,0
2016-08-20T22:00:22.315Z,0
2016-08-20T22:01:22.300Z,0
2016-08-20T22:02:22.331Z,0
2016-08-20T22:03:22.341Z,0
2016-08-20T22:04:22.350Z,0
2016-08-20T22:05:23.055Z,0
2016-08-20T22:06:22.360Z,0
2016-08-20T22:07:22.415Z,0
2016-08-20T22:08:22.389Z,0
2016-08-20T22:09:22.437Z,0
2016-08-20T22:10:22.637Z,0
2016-08-20T22:11:22.471Z,0
2016-08-20T22:12:22.491Z,0
2016-08-20T22:13:22.530Z,0
2016-08-20T22:14:22.552Z,0
2016-08-20T22:15:22.582Z,0
2016-08-20T22:16:22.601Z,0
2016-08-20T22:17:22.637Z,0
2016-08-20T22:18:22.662Z,0
2016-08-20T22:19:22.682Z,0
2016-08-20T22:20:22.714Z,0
2016-08-20T22:21:22.741Z,0
2016-08-20T22:22:22.762Z,0
2016-08-20T22:23:22.806Z,0
2016-08-20T22:24:22.823Z,0
2016-08-20T22:25:22.849Z,0
2016-08-20T22:26:22.869Z,0
2016-08-20T22:27:23.611Z,0
2016-08-20T22:28:22.947Z,0
2016-08-20T22:29:23.652Z,0
2016-08-20T22:30:22.978Z,0
2016-08-20T22:31:23.025Z,0
2016-08-20T22:32:23.044Z,0
2016-08-20T22:33:23.059Z,0
2016-08-20T22:34:23.091Z,0
2016-08-20T22:35:23.111Z,0
2016-08-20T22:36:23.140Z,0
2016-08-20T22:37:23.220Z,0
2016-08-20T22:38:23.195Z,0
2016-08-20T22:39:23.222Z,0
2016-08-20T22:40:23.253Z,0
2016-08-20T22:41:23.277Z,0
2016-08-20T22:42:24.096Z,0
2016-08-20T22:43:24.108Z,0
2016-08-20T22:44:23.355Z,0
2016-08-20T22:45:23.424Z,0
2016-08-20T22:46:23.455Z,0
2016-08-20T22:47:23.434Z,0
2016-08-20T22:48:23.458Z,0
2016-08-20T22:49:23.491Z,0
2016-08-20T22:50:23.523Z,0
2016-08-20T22:51:23.553Z,0
2016-08-20T22:52:23.568Z,0
2016-08-20T22:53:23.587Z,0
2016-08-20T22:54:23.614Z,0
2016-08-20T22:55:23.648Z,0
2016-08-20T22:56:24.370Z,0
2016-08-20T22:57:23.744Z,0
2016-08-20T22:58:24.433Z,0
2016-08-20T22:59:24.027Z,0
2016-08-20T23:00:23.787Z,0
2016-08-20T23:01:24.508Z,0
2016-08-20T23:02:23.825Z,0
2016-08-20T23:03:24.565Z,0
2016-08-20T23:04:23.996Z,0
2016-08-20T23:05:23.993Z,0
2016-08-20T23:06:24.022Z,0
2016-08-20T23:07:24.210Z,0
2016-08-20T23:08:24.932Z,0
2016-08-20T23:09:24.228Z,0
2016-08-20T23:10:24.235Z,0
2016-08-20T23:11:25.686Z,0
2016-08-20T23:12:24.287Z,0
2016-08-20T23:13:24.293Z,0
2016-08-20T23:14:24.298Z,0
2016-08-20T23:15:24.308Z,0
2016-08-20T23:16:24.316Z,0
2016-08-20T23:17:24.322Z,0
2016-08-20T23:18:24.337Z,0
2016-08-20T23:19:24.369Z,0
2016-08-20T23:20:24.377Z,0
2016-08-20T23:21:24.416Z,0
2016-08-20T23:22:24.414Z,0
2016-08-20T23:23:24.406Z,0
2016-08-20T23:24:25.825Z,0
2016-08-20T23:25:24.427Z,0
2016-08-20T23:26:24.462Z,0
2016-08-20T23:27:25.193Z,0
2016-08-20T23:28:24.510Z,0
2016-08-20T23:29:24.544Z,0
2016-08-20T23:30:24.559Z,0
2016-08-20T23:31:24.587Z,0
2016-08-20T23:32:24.611Z,0
2016-08-20T23:33:24.647Z,0
2016-08-20T23:34:24.678Z,0
2016-08-20T23:35:24.693Z,0
2016-08-20T23:36:24.723Z,0
2016-08-20T23:37:24.794Z,0
2016-08-20T23:38:24.790Z,0
2016-08-20T23:39:24.798Z,0
2016-08-20T23:40:24.832Z,0
2016-08-20T23:41:24.848Z,0
2016-08-20T23:42:24.881Z,0
2016-08-20T23:43:24.907Z,0
2016-08-20T23:44:24.976Z,0
2016-08-20T23:45:24.960Z,0
2016-08-20T23:46:24.980Z,0
2016-08-20T23:47:25.013Z,0
2016-08-20T23:48:25.041Z,0
2016-08-20T23:49:25.063Z,0
2016-08-20T23:50:25.824Z,0
2016-08-20T23:51:25.110Z,0
2016-08-20T23:52:25.141Z,0
2016-08-20T23:53:25.866Z,0
2016-08-20T23:54:25.198Z,0
2016-08-20T23:55:25.214Z,0
2016-08-20T23:56:25.246Z,0
2016-08-20T23:57:25.313Z,0
2016-08-20T23:58:25.430Z,0
2016-08-20T23:59:25.417Z,0
